createdAt,value
2023-02-19T00:01:18.136Z,11.2
2023-02-19T00:04:19.204Z,11.349999999999998
2023-02-19T00:07:16.710Z,8.975000000000001
2023-02-19T00:11:18.181Z,10.5625
2023-02-19T00:14:19.286Z,9.6
2023-02-19T00:17:16.653Z,10.837499999999999
2023-02-19T00:21:16.730Z,11.0875
2023-02-19T00:24:16.542Z,10.2125
2023-02-19T00:27:16.528Z,9.3125
2023-02-19T00:31:18.275Z,10.325
2023-02-19T00:34:16.969Z,17.65
2023-02-19T00:37:16.939Z,12.0125
2023-02-19T00:41:23.793Z,9.9375
2023-02-19T00:44:15.978Z,13.087499999999999
2023-02-19T00:47:15.829Z,10.4
2023-02-19T00:51:15.962Z,11.5875
2023-02-19T00:54:17.016Z,10.65
2023-02-19T00:57:16.052Z,8.55
2023-02-19T01:01:16.048Z,10.0625
2023-02-19T01:04:16.611Z,11.7625
2023-02-19T01:07:16.194Z,8.5
2023-02-19T01:11:16.325Z,9.975000000000001
2023-02-19T01:14:15.989Z,8.325
2023-02-19T01:17:15.802Z,10.662500000000001
2023-02-19T01:21:18.259Z,12.4875
2023-02-19T01:24:16.706Z,10.825
2023-02-19T01:27:16.404Z,8.0875
2023-02-19T01:31:19.557Z,10.0125
2023-02-19T01:34:16.606Z,10.225
2023-02-19T01:37:16.785Z,8.8375
2023-02-19T01:41:18.688Z,11.4625
2023-02-19T01:45:27.062Z,10.1125
2023-02-19T01:47:19.394Z,10.8125
2023-02-19T01:51:19.076Z,11.5875
2023-02-19T01:54:21.055Z,11.075
2023-02-19T01:57:20.458Z,12.375
2023-02-19T02:01:16.106Z,11.3875
2023-02-19T02:04:18.095Z,10.8625
2023-02-19T02:11:16.358Z,9.7125
2023-02-19T02:14:20.920Z,11.3
2023-02-19T02:17:23.965Z,10.5625
2023-02-19T02:21:34.493Z,12.825
2023-02-19T02:24:36.334Z,13.8625
2023-02-19T02:27:34.800Z,13.5125
2023-02-19T02:31:20.248Z,9.2625
2023-02-19T02:34:23.638Z,9.787500000000001
2023-02-19T02:37:16.616Z,11.225000000000001
2023-02-19T02:41:16.127Z,8.4
2023-02-19T02:44:16.436Z,14.799999999999999
2023-02-19T02:47:45.646Z,9.0625
2023-02-19T02:51:20.336Z,10.55
2023-02-19T02:55:22.756Z,11.4
2023-02-19T02:57:18.490Z,11.399999999999999
2023-02-19T03:02:24.434Z,12.35
2023-02-19T03:04:23.795Z,10.725
2023-02-19T03:07:16.245Z,12.95
2023-02-19T03:21:19.154Z,10.899999999999999
2023-02-19T03:41:25.616Z,8.6125
2023-02-19T03:44:23.656Z,7.324999999999999
2023-02-19T03:47:23.574Z,8.4375
2023-02-19T03:51:29.908Z,8.025
2023-02-19T03:54:21.801Z,7.825
2023-02-19T03:57:21.156Z,9.1875
2023-02-19T04:01:20.899Z,9.8
2023-02-19T04:04:19.377Z,6.85
2023-02-19T04:07:17.104Z,8.8125
2023-02-19T04:11:18.353Z,9.325
2023-02-19T04:14:21.461Z,8.4125
2023-02-19T04:17:25.716Z,14
2023-02-19T04:21:18.164Z,6.7375
2023-02-19T04:24:21.951Z,5.7125
2023-02-19T04:27:17.088Z,7.950000000000001
2023-02-19T04:31:16.129Z,7.137499999999999
2023-02-19T04:34:16.266Z,5.725
2023-02-19T04:37:16.227Z,5.2875
2023-02-19T04:41:16.458Z,7.324999999999999
2023-02-19T04:44:17.054Z,9.3125
2023-02-19T04:47:17.846Z,6.1625
2023-02-19T04:51:15.665Z,8.5625
2023-02-19T04:54:15.863Z,8.4625
2023-02-19T04:57:15.898Z,8.65
2023-02-19T05:01:15.938Z,8.8
2023-02-19T05:04:16.171Z,6.8625
2023-02-19T05:07:15.855Z,9.8125
2023-02-19T05:11:16.300Z,7.6
2023-02-19T05:14:17.285Z,11.025
2023-02-19T05:17:16.627Z,11.7
2023-02-19T05:21:16.049Z,13.537500000000001
2023-02-19T05:24:16.214Z,12.274999999999999
2023-02-19T05:27:16.624Z,12.037500000000001
2023-02-19T05:31:17.784Z,15.875
2023-02-19T05:34:17.520Z,14.399999999999999
2023-02-19T05:37:17.405Z,17.200000000000003
2023-02-19T05:41:19.176Z,19.5625
2023-02-19T05:44:17.304Z,14.625
2023-02-19T05:47:17.385Z,12.85
2023-02-19T05:51:18.585Z,18.7
2023-02-19T05:54:16.458Z,14.6375
2023-02-19T05:57:16.958Z,16.9
2023-02-19T06:01:18.328Z,20.1
2023-02-19T06:04:20.234Z,18.049999999999997
2023-02-19T06:07:17.202Z,15.425
2023-02-19T06:11:17.144Z,16.975
2023-02-19T06:14:16.747Z,17.9125
2023-02-19T06:17:16.946Z,17.7375
2023-02-19T06:21:17.296Z,16.950000000000003
2023-02-19T06:31:19.295Z,13.9875
2023-02-19T06:34:16.904Z,14.325000000000001
2023-02-19T06:37:18.561Z,9.0625
2023-02-19T06:41:18.224Z,11.0875
2023-02-19T06:44:18.294Z,13.4
2023-02-19T06:47:16.752Z,14.675
2023-02-19T06:51:19.394Z,11.6
2023-02-19T06:54:17.084Z,10.775
2023-02-19T06:57:17.543Z,11.3
2023-02-19T07:01:17.746Z,11.9
2023-02-19T07:04:17.288Z,11.3875
2023-02-19T07:07:21.658Z,11.4125
2023-02-19T07:11:17.489Z,11.2625
2023-02-19T07:14:17.370Z,11.25
2023-02-19T07:17:17.440Z,14.4
2023-02-19T07:21:17.870Z,21.987499999999997
2023-02-19T07:24:18.964Z,12.8125
2023-02-19T07:27:17.700Z,13.075
2023-02-19T07:31:19.475Z,19.512500000000003
2023-02-19T07:34:18.321Z,14.65
2023-02-19T07:37:17.497Z,14.024999999999999
2023-02-19T07:41:17.540Z,15.925
2023-02-19T07:44:17.863Z,14.3125
2023-02-19T07:47:17.056Z,19.3
2023-02-19T07:51:20.739Z,17.5
2023-02-19T07:54:17.060Z,12.475
2023-02-19T07:57:18.455Z,13.6375
2023-02-19T08:01:22.129Z,15.9875
2023-02-19T08:04:18.638Z,11.575
2023-02-19T08:07:17.788Z,11.325
2023-02-19T08:21:20.689Z,16.762500000000003
2023-02-19T08:24:18.225Z,14.05
2023-02-19T08:27:18.082Z,16.125
2023-02-19T08:31:17.148Z,16.05
2023-02-19T08:34:17.213Z,15.637500000000001
2023-02-19T08:37:17.349Z,10.6625
2023-02-19T08:41:16.847Z,11.6625
2023-02-19T08:44:17.321Z,12.1375
2023-02-19T08:47:17.088Z,10.6125
2023-02-19T08:51:16.532Z,11.6375
2023-02-19T08:54:18.086Z,11.1625
2023-02-19T08:57:17.062Z,7.574999999999999
2023-02-19T09:01:17.523Z,9.25
2023-02-19T09:04:16.950Z,9.9375
2023-02-19T09:07:17.631Z,9.1125
2023-02-19T09:11:16.934Z,7.95
2023-02-19T09:14:17.672Z,6.675000000000001
2023-02-19T09:17:17.249Z,14.0125
2023-02-19T09:21:17.247Z,11.5125
2023-02-19T09:24:17.682Z,8.262500000000001
2023-02-19T09:27:18.945Z,7.25
2023-02-19T09:31:16.735Z,5.9375
2023-02-19T09:34:16.751Z,5.25
2023-02-19T09:37:16.571Z,4.612500000000001
2023-02-19T09:41:24.797Z,5.9
2023-02-19T09:44:25.715Z,4.625
2023-02-19T09:47:18.791Z,7.2125
2023-02-19T09:51:16.748Z,9.6125
2023-02-19T09:54:21.791Z,7.2875
2023-02-19T09:57:20.570Z,5.1125
2023-02-19T10:01:18.135Z,6.5625
2023-02-19T10:04:16.667Z,7.862500000000001
2023-02-19T10:07:20.308Z,10.525
2023-02-19T10:11:16.255Z,6.575
2023-02-19T10:14:21.691Z,8.575
2023-02-19T10:17:21.678Z,8.0875
2023-02-19T10:21:18.337Z,9.425
2023-02-19T10:24:23.365Z,10.05
2023-02-19T10:27:16.310Z,10.1
2023-02-19T10:31:20.552Z,13.95
2023-02-19T10:34:18.495Z,7.387500000000001
2023-02-19T10:37:17.774Z,8.3125
2023-02-19T10:41:20.264Z,9.1125
2023-02-19T10:44:20.946Z,8.425
2023-02-19T10:47:20.488Z,7.612500000000001
2023-02-19T10:51:33.083Z,7.1625
2023-02-19T10:54:20.130Z,7.4875
2023-02-19T10:57:31.925Z,7.775
2023-02-19T11:01:19.412Z,10.1875
2023-02-19T11:04:17.940Z,9.424999999999999
2023-02-19T11:07:18.031Z,10.587499999999999
2023-02-19T11:11:34.621Z,8.1625
2023-02-19T11:14:18.985Z,5.9
2023-02-19T11:17:23.914Z,9.8
2023-02-19T11:21:25.335Z,11.775
2023-02-19T11:24:25.939Z,9.375
2023-02-19T11:27:19.267Z,9.237499999999999
2023-02-19T11:31:24.624Z,16.299999999999997
2023-02-19T11:34:26.654Z,10.3125
2023-02-19T11:37:18.028Z,10.8125
2023-02-19T11:41:25.519Z,8.3375
2023-02-19T11:44:30.356Z,16.4625
2023-02-19T11:47:36.723Z,7.875
2023-02-19T11:51:29.630Z,11.2625
2023-02-19T11:54:31.763Z,6.675
2023-02-19T11:57:25.033Z,7.375
2023-02-19T12:01:22.788Z,6.512499999999999
2023-02-19T12:04:38.559Z,6.3875
2023-02-19T12:07:29.805Z,7.199999999999999
2023-02-19T12:11:32.103Z,11.887500000000001
2023-02-19T12:31:33.975Z,6.175
2023-02-19T12:34:34.457Z,7.6625000000000005
2023-02-19T12:37:30.272Z,5.25
2023-02-19T12:41:24.886Z,5.8
2023-02-19T12:44:25.484Z,6.549999999999999
2023-02-19T12:47:20.689Z,19.5375
2023-02-19T12:51:21.742Z,9.762500000000001
2023-02-19T12:54:23.635Z,8.575
2023-02-19T12:57:20.849Z,7.862499999999999
2023-02-19T13:01:22.250Z,9.375
2023-02-19T13:04:25.478Z,8.175
2023-02-19T13:07:23.285Z,7.55
2023-02-19T13:11:22.420Z,6.6125
2023-02-19T13:14:25.627Z,16.0625
2023-02-19T13:17:26.418Z,10.7375
2023-02-19T13:24:00.525Z,9
2023-02-19T13:24:22.770Z,11.287500000000001
2023-02-19T13:27:36.656Z,11.362499999999999
2023-02-19T13:31:34.958Z,10.4875
2023-02-19T13:34:27.518Z,9.649999999999999
2023-02-19T13:37:17.079Z,11.1625
2023-02-19T13:41:25.431Z,12.287500000000001
2023-02-19T13:44:19.312Z,14.5375
2023-02-19T13:47:48.333Z,10.4875
2023-02-19T13:51:49.739Z,11.3
2023-02-19T13:54:25.481Z,9.85
2023-02-19T13:57:26.951Z,9.45
2023-02-19T14:01:18.344Z,13.875
2023-02-19T14:04:20.178Z,10.575
2023-02-19T14:08:09.123Z,15.4875
2023-02-19T14:11:17.717Z,11.125
2023-02-19T14:14:36.792Z,11.05
2023-02-19T14:17:36.743Z,11.3
2023-02-19T14:21:24.139Z,12.225000000000001
2023-02-19T14:24:17.343Z,11.3875
2023-02-19T14:27:17.100Z,17.112499999999997
2023-02-19T14:31:26.256Z,11.275
2023-02-19T14:34:23.411Z,12.262500000000001
2023-02-19T14:37:20.547Z,8.8375
2023-02-19T14:41:17.230Z,9.6875
2023-02-19T14:44:21.954Z,10.7
2023-02-19T14:47:19.647Z,11.8125
2023-02-19T14:51:29.250Z,12.325
2023-02-19T14:54:26.841Z,8.587499999999999
2023-02-19T14:57:21.937Z,9.425
2023-02-19T15:01:34.030Z,8.2375
2023-02-19T15:04:23.803Z,11.8
2023-02-19T15:07:24.699Z,10.7625
2023-02-19T15:11:21.492Z,8.8375
2023-02-19T15:14:22.945Z,10.1375
2023-02-19T15:17:25.462Z,9.675
2023-02-19T15:21:24.585Z,8.837499999999999
2023-02-19T15:24:18.688Z,10.925
2023-02-19T15:27:18.821Z,10.4375
2023-02-19T15:31:17.584Z,10.087499999999999
2023-02-19T15:34:21.142Z,9.399999999999999
2023-02-19T15:37:16.507Z,18.6625
2023-02-19T15:41:21.470Z,15.649999999999999
2023-02-19T15:44:31.352Z,12.8375
2023-02-19T15:47:25.728Z,10.325
2023-02-19T15:51:23.545Z,13.25
2023-02-19T15:54:26.884Z,10.412500000000001
2023-02-19T15:57:25.376Z,11.0125
2023-02-19T16:01:23.656Z,9.0625
2023-02-19T16:04:18.295Z,8.5125
2023-02-19T16:07:26.662Z,11.6375
2023-02-19T16:11:27.450Z,13.424999999999999
2023-02-19T16:14:21.442Z,19.0625
2023-02-19T16:17:19.458Z,18.987499999999997
2023-02-19T16:21:20.805Z,14.725000000000001
2023-02-19T16:24:28.000Z,15.4375
2023-02-19T16:27:28.939Z,12.1875
2023-02-19T16:31:20.905Z,13.275
2023-02-19T16:34:25.414Z,14.075
2023-02-19T16:37:35.861Z,18.837500000000002
2023-02-19T16:41:16.728Z,24.4125
2023-02-19T16:44:30.300Z,19.0375
2023-02-19T16:47:27.515Z,18.424999999999997
2023-02-19T16:51:25.426Z,15
2023-02-19T16:54:16.997Z,12.825000000000001
2023-02-19T16:57:16.886Z,13.8625
2023-02-19T17:01:16.479Z,15.312499999999998
2023-02-19T17:04:16.578Z,12.8375
2023-02-19T17:07:17.808Z,14.0625
2023-02-19T17:11:17.666Z,16.3125
2023-02-19T17:14:17.232Z,14.025
2023-02-19T17:17:17.240Z,16.2
2023-02-19T17:21:19.714Z,21.900000000000002
2023-02-19T17:24:17.580Z,20.3125
2023-02-19T17:27:17.304Z,29.175
2023-02-19T17:31:16.952Z,24.174999999999997
2023-02-19T17:34:16.690Z,34.925
2023-02-19T17:37:16.842Z,39.0625
2023-02-19T17:41:15.955Z,47.825
2023-02-19T17:44:16.328Z,37.975
2023-02-19T17:47:16.367Z,35.65
2023-02-19T17:51:16.229Z,38.25
2023-02-19T17:54:16.211Z,41.425
2023-02-19T17:57:16.275Z,32.575
2023-02-19T18:01:16.435Z,19.137500000000003
2023-02-19T18:04:16.887Z,15.012500000000001
2023-02-19T18:07:16.747Z,20.175
2023-02-19T18:11:17.432Z,17.375
2023-02-19T18:14:16.874Z,14.162500000000001
2023-02-19T18:17:16.890Z,14.8875
2023-02-19T18:21:16.444Z,18.6875
2023-02-19T18:24:16.745Z,17.1
2023-02-19T18:27:17.878Z,15.4375
2023-02-19T18:31:16.225Z,17.6875
2023-02-19T18:34:17.848Z,16.237499999999997
2023-02-19T18:37:17.068Z,18.4125
2023-02-19T18:41:19.922Z,21.9875
2023-02-19T18:44:18.020Z,24.7875
2023-02-19T18:47:17.196Z,15.325000000000001
2023-02-19T18:51:15.757Z,20.8375
2023-02-19T18:54:16.360Z,20.325000000000003
2023-02-19T18:57:16.464Z,16.587500000000002
2023-02-19T19:01:16.603Z,20.012500000000003
2023-02-19T19:04:16.966Z,18.700000000000003
2023-02-19T19:07:18.010Z,25.9625
2023-02-19T19:11:16.008Z,37.5375
2023-02-19T19:14:16.498Z,35.925
2023-02-19T19:17:16.422Z,22.7125
2023-02-19T19:21:16.791Z,22.950000000000003
2023-02-19T19:24:16.460Z,27.75
2023-02-19T19:27:17.994Z,26.45
2023-02-19T19:31:18.769Z,23.8875
2023-02-19T19:34:17.873Z,21.9375
2023-02-19T19:37:17.225Z,20.8875
2023-02-19T19:41:18.742Z,19.2125
2023-02-19T19:44:16.961Z,25.45
2023-02-19T19:47:17.355Z,19.3125
2023-02-19T19:51:16.434Z,30.65
2023-02-19T19:54:16.411Z,27.825000000000003
2023-02-19T19:57:16.388Z,21.3625
2023-02-19T20:01:21.186Z,18.3125
2023-02-19T20:04:16.845Z,23.625
2023-02-19T20:07:16.623Z,26.212500000000002
2023-02-19T20:11:16.412Z,22.400000000000002
2023-02-19T20:14:19.398Z,25.7625
2023-02-19T20:17:16.810Z,23.462500000000002
2023-02-19T20:21:16.234Z,22.75
2023-02-19T20:24:19.161Z,28.1875
2023-02-19T20:27:16.729Z,21.075000000000003
2023-02-19T20:31:16.789Z,19.6625
2023-02-19T20:34:17.604Z,20.35
2023-02-19T20:37:17.057Z,30.224999999999998
2023-02-19T20:41:16.349Z,24.275
2023-02-19T20:44:18.054Z,19.2875
2023-02-19T20:47:16.284Z,19.3875
2023-02-19T20:51:16.233Z,26.3375
2023-02-19T20:54:16.809Z,15.850000000000001
2023-02-19T20:57:16.088Z,23.8375
2023-02-19T21:01:16.293Z,33.0875
2023-02-19T21:04:18.161Z,28.824999999999996
2023-02-19T21:07:16.695Z,18.112499999999997
2023-02-19T21:11:16.710Z,18.9125
2023-02-19T21:14:19.020Z,18.612499999999997
2023-02-19T21:17:16.959Z,19.224999999999998
2023-02-19T21:21:17.141Z,14.3
2023-02-19T21:24:16.559Z,19.2625
2023-02-19T21:27:16.135Z,14.5625
2023-02-19T21:31:16.685Z,14.487499999999999
2023-02-19T21:34:19.366Z,19.775
2023-02-19T21:37:17.077Z,33.95
2023-02-19T21:41:15.929Z,17.987499999999997
2023-02-19T21:44:16.648Z,14.450000000000001
2023-02-19T21:47:16.747Z,15.225
2023-02-19T21:51:16.839Z,20.375
2023-02-19T21:54:18.583Z,22.25
2023-02-19T21:57:16.398Z,15.287499999999998
2023-02-19T22:01:19.361Z,14.450000000000001
2023-02-19T22:04:18.709Z,22.4125
2023-02-19T22:07:16.983Z,29.15
2023-02-19T22:11:16.774Z,13.737499999999999
2023-02-19T22:14:17.196Z,18.325000000000003
2023-02-19T22:17:16.927Z,18.85
2023-02-19T22:21:17.811Z,15.262500000000001
2023-02-19T22:24:20.181Z,15.8625
2023-02-19T22:27:16.970Z,14.0375
2023-02-19T22:31:19.087Z,14.9375
2023-02-19T22:34:16.905Z,19.150000000000002
2023-02-19T22:37:16.867Z,15.987499999999999
2023-02-19T22:41:18.161Z,16.85
2023-02-19T22:44:17.171Z,19.5375
2023-02-19T22:47:18.203Z,28.137500000000003
2023-02-19T22:51:18.307Z,24.6625
2023-02-19T22:54:17.091Z,17.9
2023-02-19T22:57:16.888Z,17.75
2023-02-19T23:01:19.729Z,18.175
2023-02-19T23:04:18.339Z,22.325000000000003
2023-02-19T23:07:17.184Z,16.3375
2023-02-19T23:11:20.783Z,17.15
2023-02-19T23:14:17.853Z,17.9375
2023-02-19T23:17:16.361Z,19.775
2023-02-19T23:21:17.581Z,20.9375
2023-02-19T23:24:16.881Z,21.5
2023-02-19T23:27:16.827Z,20.9125
2023-02-19T23:31:16.741Z,25.525
2023-02-19T23:34:16.965Z,19.4
2023-02-19T23:37:17.089Z,23.875
2023-02-19T23:41:17.641Z,20.2125
2023-02-19T23:44:18.201Z,18.7875
2023-02-19T23:47:17.072Z,17.9
2023-02-19T23:51:16.437Z,21.4125
2023-02-19T23:54:16.927Z,21.0875
2023-02-19T23:57:16.765Z,14.2375
